sensor_id;sensor_type;location;lat;lon;timestamp;pressure;altitude;pressure_sealevel;temperature;humidity
52105;BME280;38103;42.776;23.112;2022-12-20T00:01:14;95715.09;;;-3.46;100.00
52105;BME280;38103;42.776;23.112;2022-12-20T00:03:40;95719.31;;;-3.45;100.00
52105;BME280;38103;42.776;23.112;2022-12-20T00:06:07;95672.34;;;-3.78;100.00
52105;BME280;38103;42.776;23.112;2022-12-20T00:08:33;95725.75;;;-3.51;100.00
52105;BME280;38103;42.776;23.112;2022-12-20T00:11:00;95725.94;;;-3.54;100.00
52105;BME280;38103;42.776;23.112;2022-12-20T00:13:26;95718.91;;;-3.52;100.00
52105;BME280;38103;42.776;23.112;2022-12-20T00:16:03;95721.16;;;-3.60;100.00
52105;BME280;38103;42.776;23.112;2022-12-20T00:18:29;95726.34;;;-3.60;100.00
52105;BME280;38103;42.776;23.112;2022-12-20T00:21:02;95725.09;;;-3.67;100.00
52105;BME280;38103;42.776;23.112;2022-12-20T00:23:28;95732.97;;;-3.56;100.00
52105;BME280;38103;42.776;23.112;2022-12-20T00:28:34;95729.13;;;-3.63;100.00
52105;BME280;38103;42.776;23.112;2022-12-20T00:31:00;95724.06;;;-3.52;100.00
52105;BME280;38103;42.776;23.112;2022-12-20T00:33:26;95727.50;;;-3.51;100.00
52105;BME280;38103;42.776;23.112;2022-12-20T00:35:54;95722.81;;;-3.59;100.00
52105;BME280;38103;42.776;23.112;2022-12-20T00:38:20;95724.28;;;-3.55;100.00
52105;BME280;38103;42.776;23.112;2022-12-20T00:40:46;95725.75;;;-3.51;100.00
52105;BME280;38103;42.776;23.112;2022-12-20T00:43:11;95678.34;;;-3.64;100.00
52105;BME280;38103;42.776;23.112;2022-12-20T00:45:37;95722.84;;;-3.33;100.00
52105;BME280;38103;42.776;23.112;2022-12-20T00:48:02;95718.72;;;-3.35;100.00
52105;BME280;38103;42.776;23.112;2022-12-20T00:50:28;95707.31;;;-3.33;100.00
52105;BME280;38103;42.776;23.112;2022-12-20T00:52:53;95707.31;;;-3.33;100.00
52105;BME280;38103;42.776;23.112;2022-12-20T00:55:19;95694.78;;;-3.39;100.00
52105;BME280;38103;42.776;23.112;2022-12-20T00:57:44;95659.75;;;-3.56;100.00
52105;BME280;38103;42.776;23.112;2022-12-20T01:00:10;95702.34;;;-3.36;100.00
52105;BME280;38103;42.776;23.112;2022-12-20T01:02:35;95720.03;;;-3.30;100.00
52105;BME280;38103;42.776;23.112;2022-12-20T01:05:01;95719.50;;;-3.22;100.00
52105;BME280;38103;42.776;23.112;2022-12-20T01:07:26;95714.97;;;-3.18;100.00
52105;BME280;38103;42.776;23.112;2022-12-20T01:09:52;95706.69;;;-3.23;100.00
52105;BME280;38103;42.776;23.112;2022-12-20T01:12:17;95701.72;;;-3.27;100.00
52105;BME280;38103;42.776;23.112;2022-12-20T01:14:43;95707.53;;;-3.36;100.00
52105;BME280;38103;42.776;23.112;2022-12-20T01:17:08;95704.81;;;-3.34;100.00
52105;BME280;38103;42.776;23.112;2022-12-20T01:19:34;95700.47;;;-3.34;100.00
52105;BME280;38103;42.776;23.112;2022-12-20T01:21:59;95702.34;;;-3.36;100.00
52105;BME280;38103;42.776;23.112;2022-12-20T01:24:24;95703.19;;;-3.35;100.00
52105;BME280;38103;42.776;23.112;2022-12-20T01:26:50;95690.78;;;-3.43;100.00
52105;BME280;38103;42.776;23.112;2022-12-20T01:29:15;95696.47;;;-3.38;100.00
52105;BME280;38103;42.776;23.112;2022-12-20T01:31:41;95696.34;;;-3.37;100.00
52105;BME280;38103;42.776;23.112;2022-12-20T01:34:06;95688.19;;;-3.43;100.00
52105;BME280;38103;42.776;23.112;2022-12-20T01:36:33;95663.44;;;-3.48;100.00
52105;BME280;38103;42.776;23.112;2022-12-20T01:39:11;95695.50;;;-3.37;100.00
52105;BME280;38103;42.776;23.112;2022-12-20T01:41:37;95680.63;;;-3.33;100.00
52105;BME280;38103;42.776;23.112;2022-12-20T01:46:32;95678.56;;;-3.41;100.00
52105;BME280;38103;42.776;23.112;2022-12-20T01:49:20;95675.25;;;-3.43;100.00
52105;BME280;38103;42.776;23.112;2022-12-20T01:51:54;95687.47;;;-3.45;100.00
52105;BME280;38103;42.776;23.112;2022-12-20T01:54:26;95683.22;;;-3.46;100.00
52105;BME280;38103;42.776;23.112;2022-12-20T01:57:00;95678.25;;;-3.50;100.00
52105;BME280;38103;42.776;23.112;2022-12-20T01:59:28;95675.78;;;-3.51;100.00
52105;BME280;38103;42.776;23.112;2022-12-20T02:02:02;95673.38;;;-3.54;100.00
52105;BME280;38103;42.776;23.112;2022-12-20T02:04:29;95674.41;;;-3.57;100.00
52105;BME280;38103;42.776;23.112;2022-12-20T02:06:54;95677.13;;;-3.59;100.00
52105;BME280;38103;42.776;23.112;2022-12-20T02:09:20;95674.63;;;-3.60;100.00
52105;BME280;38103;42.776;23.112;2022-12-20T02:12:10;95662.84;;;-3.64;100.00
52105;BME280;38103;42.776;23.112;2022-12-20T02:31:30;95663.47;;;-3.74;100.00
52105;BME280;38103;42.776;23.112;2022-12-20T02:33:58;95663.47;;;-3.74;100.00
52105;BME280;38103;42.776;23.112;2022-12-20T02:36:24;95667.47;;;-3.83;100.00
52105;BME280;38103;42.776;23.112;2022-12-20T02:38:50;95655.28;;;-3.81;100.00
52105;BME280;38103;42.776;23.112;2022-12-20T02:43:49;95661.91;;;-3.89;100.00
52105;BME280;38103;42.776;23.112;2022-12-20T02:46:35;95660.75;;;-3.85;100.00
52105;BME280;38103;42.776;23.112;2022-12-20T02:49:13;95650.81;;;-3.92;100.00
52105;BME280;38103;42.776;23.112;2022-12-20T02:51:40;95656.59;;;-4.01;100.00
52105;BME280;38103;42.776;23.112;2022-12-20T02:54:07;95570.97;;;-4.62;100.00
52105;BME280;38103;42.776;23.112;2022-12-20T02:59:49;95647.47;;;-4.20;100.00
52105;BME280;38103;42.776;23.112;2022-12-20T03:02:19;95639.19;;;-4.25;100.00
52105;BME280;38103;42.776;23.112;2022-12-20T03:04:47;95611.47;;;-4.49;100.00
52105;BME280;38103;42.776;23.112;2022-12-20T03:07:13;95643.63;;;-4.27;100.00
52105;BME280;38103;42.776;23.112;2022-12-20T03:09:41;95641.47;;;-4.33;100.00
52105;BME280;38103;42.776;23.112;2022-12-20T03:12:08;95642.91;;;-4.29;100.00
52105;BME280;38103;42.776;23.112;2022-12-20T03:14:36;95636.09;;;-4.30;100.00
52105;BME280;38103;42.776;23.112;2022-12-20T03:17:01;95627.84;;;-4.35;100.00
52105;BME280;38103;42.776;23.112;2022-12-20T03:19:26;95631.53;;;-4.40;100.00
52105;BME280;38103;42.776;23.112;2022-12-20T03:21:52;95637.81;;;-4.44;100.00
52105;BME280;38103;42.776;23.112;2022-12-20T03:24:17;95640.50;;;-4.45;100.00
52105;BME280;38103;42.776;23.112;2022-12-20T03:26:43;95640.41;;;-4.44;100.00
52105;BME280;38103;42.776;23.112;2022-12-20T03:29:09;95642.25;;;-4.46;100.00
52105;BME280;38103;42.776;23.112;2022-12-20T03:31:34;95632.66;;;-4.44;100.00
52105;BME280;38103;42.776;23.112;2022-12-20T03:34:00;95640.22;;;-4.41;100.00
52105;BME280;38103;42.776;23.112;2022-12-20T03:36:25;95628.59;;;-4.48;100.00
52105;BME280;38103;42.776;23.112;2022-12-20T03:38:52;95632.47;;;-4.41;100.00
52105;BME280;38103;42.776;23.112;2022-12-20T03:41:18;95638.56;;;-4.42;100.00
52105;BME280;38103;42.776;23.112;2022-12-20T03:43:44;95634.44;;;-4.31;100.00
52105;BME280;38103;42.776;23.112;2022-12-20T03:46:09;95643.53;;;-4.39;100.00
52105;BME280;38103;42.776;23.112;2022-12-20T03:48:35;95635.25;;;-4.44;100.00
52105;BME280;38103;42.776;23.112;2022-12-20T03:51:00;95638.94;;;-4.48;100.00
52105;BME280;38103;42.776;23.112;2022-12-20T03:53:26;95641.97;;;-4.41;100.00
52105;BME280;38103;42.776;23.112;2022-12-20T03:55:51;95642.03;;;-4.43;100.00
52105;BME280;38103;42.776;23.112;2022-12-20T03:58:17;95637.41;;;-4.38;100.00
52105;BME280;38103;42.776;23.112;2022-12-20T04:00:42;95637.41;;;-4.38;100.00
52105;BME280;38103;42.776;23.112;2022-12-20T04:03:07;95641.56;;;-4.35;100.00
52105;BME280;38103;42.776;23.112;2022-12-20T04:05:33;95642.81;;;-4.41;100.00
52105;BME280;38103;42.776;23.112;2022-12-20T04:07:58;95633.56;;;-4.45;100.00
52105;BME280;38103;42.776;23.112;2022-12-20T04:10:24;95629.44;;;-4.47;100.00
52105;BME280;38103;42.776;23.112;2022-12-20T04:12:49;95626.38;;;-4.40;100.00
52105;BME280;38103;42.776;23.112;2022-12-20T04:15:15;95632.50;;;-4.55;100.00
52105;BME280;38103;42.776;23.112;2022-12-20T04:17:40;95623.13;;;-4.56;100.00
52105;BME280;38103;42.776;23.112;2022-12-20T04:20:06;95626.25;;;-4.51;100.00
52105;BME280;38103;42.776;23.112;2022-12-20T04:22:48;95625.31;;;-4.50;100.00
52105;BME280;38103;42.776;23.112;2022-12-20T04:25:15;95626.81;;;-4.61;100.00
52105;BME280;38103;42.776;23.112;2022-12-20T04:27:41;95618.94;;;-4.72;100.00
52105;BME280;38103;42.776;23.112;2022-12-20T04:30:07;95626.69;;;-4.72;100.00
52105;BME280;38103;42.776;23.112;2022-12-20T04:32:33;95619.50;;;-4.82;100.00
52105;BME280;38103;42.776;23.112;2022-12-20T04:34:59;95617.34;;;-4.88;100.00
52105;BME280;38103;42.776;23.112;2022-12-20T04:37:24;95609.97;;;-4.94;100.00
52105;BME280;38103;42.776;23.112;2022-12-20T04:39:49;95607.97;;;-5.03;100.00
52105;BME280;38103;42.776;23.112;2022-12-20T04:42:15;95612.00;;;-4.99;100.00
52105;BME280;38103;42.776;23.112;2022-12-20T04:44:40;95610.97;;;-4.82;100.00
52105;BME280;38103;42.776;23.112;2022-12-20T04:47:05;95614.22;;;-4.93;100.00
52105;BME280;38103;42.776;23.112;2022-12-20T04:49:31;95578.88;;;-5.06;100.00
52105;BME280;38103;42.776;23.112;2022-12-20T04:51:56;95604.91;;;-4.96;100.00
52105;BME280;38103;42.776;23.112;2022-12-20T04:54:41;95606.84;;;-4.99;100.00
52105;BME280;38103;42.776;23.112;2022-12-20T04:57:07;95597.59;;;-5.17;100.00
52105;BME280;38103;42.776;23.112;2022-12-20T04:59:34;95592.84;;;-5.38;100.00
52105;BME280;38103;42.776;23.112;2022-12-20T05:02:00;95574.09;;;-5.54;100.00
52105;BME280;38103;42.776;23.112;2022-12-20T05:04:25;95606.38;;;-5.34;100.00
52105;BME280;38103;42.776;23.112;2022-12-20T05:06:50;95608.22;;;-5.36;100.00
52105;BME280;38103;42.776;23.112;2022-12-20T05:09:16;95607.28;;;-5.35;100.00
52105;BME280;38103;42.776;23.112;2022-12-20T05:11:41;95613.19;;;-5.33;100.00
52105;BME280;38103;42.776;23.112;2022-12-20T05:14:06;95609.16;;;-5.37;100.00
52105;BME280;38103;42.776;23.112;2022-12-20T05:16:32;95609.25;;;-5.39;100.00
52105;BME280;38103;42.776;23.112;2022-12-20T05:18:57;95615.59;;;-5.44;100.00
52105;BME280;38103;42.776;23.112;2022-12-20T05:21:22;95612.47;;;-5.50;100.00
52105;BME280;38103;42.776;23.112;2022-12-20T05:24:07;95617.63;;;-5.50;100.00
52105;BME280;38103;42.776;23.112;2022-12-20T05:26:52;95618.16;;;-5.59;100.00
52105;BME280;38103;42.776;23.112;2022-12-20T05:29:17;95620.00;;;-5.61;100.00
52105;BME280;38103;42.776;23.112;2022-12-20T05:31:42;95620.56;;;-5.56;100.00
52105;BME280;38103;42.776;23.112;2022-12-20T05:34:08;95623.88;;;-5.54;100.00
52105;BME280;38103;42.776;23.112;2022-12-20T05:36:34;95577.13;;;-5.77;100.00
52105;BME280;38103;42.776;23.112;2022-12-20T05:38:59;95621.13;;;-5.51;100.00
52105;BME280;38103;42.776;23.112;2022-12-20T05:41:25;95626.19;;;-5.49;100.00
52105;BME280;38103;42.776;23.112;2022-12-20T05:43:50;95620.50;;;-5.54;100.00
52105;BME280;38103;42.776;23.112;2022-12-20T05:46:16;95625.81;;;-5.57;100.00
52105;BME280;38103;42.776;23.112;2022-12-20T05:48:41;95622.69;;;-5.63;100.00
52105;BME280;38103;42.776;23.112;2022-12-20T05:51:07;95621.84;;;-5.63;100.00
52105;BME280;38103;42.776;23.112;2022-12-20T05:53:32;95616.16;;;-5.68;100.00
52105;BME280;38103;42.776;23.112;2022-12-20T05:55:58;95599.22;;;-5.87;100.00
52105;BME280;38103;42.776;23.112;2022-12-20T05:58:25;95618.91;;;-5.72;100.00
52105;BME280;38103;42.776;23.112;2022-12-20T06:00:50;95630.03;;;-5.71;100.00
52105;BME280;38103;42.776;23.112;2022-12-20T06:03:16;95625.91;;;-5.74;100.00
52105;BME280;38103;42.776;23.112;2022-12-20T06:05:42;95624.53;;;-5.65;100.00
52105;BME280;38103;42.776;23.112;2022-12-20T06:08:08;95572.16;;;-5.95;100.00
52105;BME280;38103;42.776;23.112;2022-12-20T06:10:34;95622.78;;;-5.50;100.00
52105;BME280;38103;42.776;23.112;2022-12-20T06:13:01;95621.13;;;-5.36;100.00
52105;BME280;38103;42.776;23.112;2022-12-20T06:15:27;95619.81;;;-5.29;100.00
52105;BME280;38103;42.776;23.112;2022-12-20T06:17:53;95622.91;;;-5.09;100.00
52105;BME280;38103;42.776;23.112;2022-12-20T06:20:18;95588.59;;;-5.24;100.00
52105;BME280;38103;42.776;23.112;2022-12-20T06:22:44;95624.97;;;-4.86;100.00
52105;BME280;38103;42.776;23.112;2022-12-20T06:25:10;95621.91;;;-4.78;100.00
52105;BME280;38103;42.776;23.112;2022-12-20T06:27:36;95617.09;;;-4.70;100.00
52105;BME280;38103;42.776;23.112;2022-12-20T06:30:06;95619.59;;;-4.55;100.00
52105;BME280;38103;42.776;23.112;2022-12-20T06:32:32;95580.63;;;-4.78;100.00
52105;BME280;38103;42.776;23.112;2022-12-20T06:34:57;95599.22;;;-4.32;100.00
52105;BME280;38103;42.776;23.112;2022-12-20T06:37:23;95613.22;;;-3.96;100.00
52105;BME280;38103;42.776;23.112;2022-12-20T06:39:48;95607.84;;;-3.93;100.00
52105;BME280;38103;42.776;23.112;2022-12-20T06:42:14;95606.19;;;-3.81;100.00
52105;BME280;38103;42.776;23.112;2022-12-20T06:44:39;95608.88;;;-3.56;100.00
52105;BME280;38103;42.776;23.112;2022-12-20T06:47:04;95606.34;;;-3.44;100.00
52105;BME280;38103;42.776;23.112;2022-12-20T06:49:30;95598.97;;;-3.25;99.71
52105;BME280;38103;42.776;23.112;2022-12-20T06:51:55;95595.47;;;-2.99;98.79
52105;BME280;38103;42.776;23.112;2022-12-20T06:54:20;95601.88;;;-2.67;97.78
52105;BME280;38103;42.776;23.112;2022-12-20T06:56:46;95600.38;;;-2.33;96.79
52105;BME280;38103;42.776;23.112;2022-12-20T06:59:11;95605.84;;;-2.14;94.82
52105;BME280;38103;42.776;23.112;2022-12-20T07:01:37;95608.47;;;-2.02;92.86
52105;BME280;38103;42.776;23.112;2022-12-20T07:04:02;95604.69;;;-1.98;92.79
52105;BME280;38103;42.776;23.112;2022-12-20T07:06:28;95601.56;;;-1.67;91.26
52105;BME280;38103;42.776;23.112;2022-12-20T07:08:54;95598.03;;;-1.66;90.42
52105;BME280;38103;42.776;23.112;2022-12-20T07:11:19;95551.19;;;-2.10;89.63
52105;BME280;38103;42.776;23.112;2022-12-20T07:13:44;95612.97;;;-1.93;89.99
52105;BME280;38103;42.776;23.112;2022-12-20T07:16:10;95602.53;;;-2.27;91.01
52105;BME280;38103;42.776;23.112;2022-12-20T07:18:35;95603.00;;;-2.22;91.84
52105;BME280;38103;42.776;23.112;2022-12-20T07:21:02;95600.66;;;-2.14;92.75
52105;BME280;38103;42.776;23.112;2022-12-20T07:23:28;95602.50;;;-1.68;92.18
52105;BME280;38103;42.776;23.112;2022-12-20T07:25:55;95594.38;;;-1.52;91.46
52105;BME280;38103;42.776;23.112;2022-12-20T07:28:21;95555.13;;;-1.70;89.56
52105;BME280;38103;42.776;23.112;2022-12-20T07:30:46;95602.16;;;-1.17;89.57
52105;BME280;38103;42.776;23.112;2022-12-20T07:33:11;95608.72;;;-1.02;88.28
52105;BME280;38103;42.776;23.112;2022-12-20T07:35:37;95601.25;;;-0.83;88.87
52105;BME280;38103;42.776;23.112;2022-12-20T07:38:02;95599.91;;;-0.66;87.21
52105;BME280;38103;42.776;23.112;2022-12-20T07:40:27;95599.00;;;-0.76;87.29
52105;BME280;38103;42.776;23.112;2022-12-20T07:42:53;95597.06;;;-0.63;86.86
52105;BME280;38103;42.776;23.112;2022-12-20T07:45:18;95596.28;;;-0.75;87.29
52105;BME280;38103;42.776;23.112;2022-12-20T07:47:43;95583.75;;;-0.37;85.92
52105;BME280;38103;42.776;23.112;2022-12-20T07:50:09;95585.66;;;0.04;84.60
52105;BME280;38103;42.776;23.112;2022-12-20T07:52:36;95586.16;;;-0.02;83.74
52105;BME280;38103;42.776;23.112;2022-12-20T07:55:04;95595.69;;;-0.46;84.34
52105;BME280;38103;42.776;23.112;2022-12-20T07:57:39;95590.84;;;-0.39;85.41
52105;BME280;38103;42.776;23.112;2022-12-20T08:00:07;95547.47;;;-0.60;86.05
52105;BME280;38103;42.776;23.112;2022-12-20T08:02:37;95553.94;;;-0.32;85.28
52105;BME280;38103;42.776;23.112;2022-12-20T08:05:06;95587.81;;;-0.01;85.02
52105;BME280;38103;42.776;23.112;2022-12-20T08:07:32;95589.16;;;-1.06;86.79
52105;BME280;38103;42.776;23.112;2022-12-20T08:09:58;95583.94;;;-0.94;87.71
52105;BME280;38103;42.776;23.112;2022-12-20T08:12:26;95576.19;;;-1.17;87.82
52105;BME280;38103;42.776;23.112;2022-12-20T08:14:53;95524.03;;;-1.14;87.76
52105;BME280;38103;42.776;23.112;2022-12-20T08:17:21;95591.66;;;-0.71;83.79
52105;BME280;38103;42.776;23.112;2022-12-20T08:19:46;95578.50;;;-0.58;85.03
52105;BME280;38103;42.776;23.112;2022-12-20T08:22:13;95579.13;;;-0.66;84.65
52105;BME280;38103;42.776;23.112;2022-12-20T08:24:38;95566.13;;;-0.54;83.54
52105;BME280;38103;42.776;23.112;2022-12-20T08:27:04;95582.28;;;-0.95;82.80
52105;BME280;38103;42.776;23.112;2022-12-20T08:29:29;95561.81;;;-1.33;84.93
52105;BME280;38103;42.776;23.112;2022-12-20T08:31:55;95577.16;;;-1.53;86.12
52105;BME280;38103;42.776;23.112;2022-12-20T08:34:20;95564.41;;;-1.21;85.79
52105;BME280;38103;42.776;23.112;2022-12-20T08:36:45;95570.94;;;-0.94;84.86
52105;BME280;38103;42.776;23.112;2022-12-20T08:39:11;95575.31;;;-0.62;83.29
52105;BME280;38103;42.776;23.112;2022-12-20T08:41:36;95574.75;;;-0.32;82.13
52105;BME280;38103;42.776;23.112;2022-12-20T08:44:03;95572.38;;;-0.36;80.49
52105;BME280;38103;42.776;23.112;2022-12-20T08:46:29;95569.28;;;-0.29;79.86
52105;BME280;38103;42.776;23.112;2022-12-20T08:48:54;95565.53;;;-0.15;79.21
52105;BME280;38103;42.776;23.112;2022-12-20T08:51:20;95559.13;;;0.10;77.93
52105;BME280;38103;42.776;23.112;2022-12-20T08:53:45;95557.47;;;0.31;77.61
52105;BME280;38103;42.776;23.112;2022-12-20T08:56:12;95555.66;;;0.31;78.06
52105;BME280;38103;42.776;23.112;2022-12-20T08:58:39;95555.72;;;-0.12;78.62
52105;BME280;38103;42.776;23.112;2022-12-20T09:01:07;95558.25;;;-0.43;80.11
52105;BME280;38103;42.776;23.112;2022-12-20T09:03:34;95551.91;;;-0.50;79.55
52105;BME280;38103;42.776;23.112;2022-12-20T09:06:03;95552.69;;;-0.17;77.74
52105;BME280;38103;42.776;23.112;2022-12-20T09:08:28;95555.59;;;-0.31;77.11
52105;BME280;38103;42.776;23.112;2022-12-20T09:11:02;95548.81;;;-0.23;76.92
52105;BME280;38103;42.776;23.112;2022-12-20T09:13:28;95541.00;;;-0.01;77.45
52105;BME280;38103;42.776;23.112;2022-12-20T09:15:53;95549.00;;;0.07;76.54
52105;BME280;38103;42.776;23.112;2022-12-20T09:18:18;95534.34;;;0.06;73.41
52105;BME280;38103;42.776;23.112;2022-12-20T09:20:44;95533.72;;;0.24;71.64
52105;BME280;38103;42.776;23.112;2022-12-20T09:23:09;95533.91;;;0.01;68.02
52105;BME280;38103;42.776;23.112;2022-12-20T09:25:35;95498.88;;;0.05;67.17
52105;BME280;38103;42.776;23.112;2022-12-20T09:28:02;95518.38;;;0.21;67.05
52105;BME280;38103;42.776;23.112;2022-12-20T09:30:27;95513.53;;;0.38;67.49
52105;BME280;38103;42.776;23.112;2022-12-20T09:32:53;95515.34;;;0.16;66.90
52105;BME280;38103;42.776;23.112;2022-12-20T09:35:18;95502.84;;;-0.22;68.27
52105;BME280;38103;42.776;23.112;2022-12-20T09:37:44;95511.91;;;-0.16;68.71
52105;BME280;38103;42.776;23.112;2022-12-20T09:40:17;95511.16;;;-0.07;69.57
52105;BME280;38103;42.776;23.112;2022-12-20T09:42:44;95499.38;;;-0.32;68.08
52105;BME280;38103;42.776;23.112;2022-12-20T09:45:34;95502.34;;;-0.16;69.21
52105;BME280;38103;42.776;23.112;2022-12-20T09:47:59;95491.16;;;-0.06;67.97
52105;BME280;38103;42.776;23.112;2022-12-20T09:50:40;95476.06;;;-0.13;66.30
52105;BME280;38103;42.776;23.112;2022-12-20T09:53:21;95490.66;;;0.00;66.73
52105;BME280;38103;42.776;23.112;2022-12-20T09:58:48;95474.91;;;-0.30;67.68
52105;BME280;38103;42.776;23.112;2022-12-20T10:01:21;95474.91;;;-0.30;67.07
52105;BME280;38103;42.776;23.112;2022-12-20T10:03:48;95463.47;;;-0.17;68.02
52105;BME280;38103;42.776;23.112;2022-12-20T10:08:59;95454.16;;;-0.20;66.89
52105;BME280;38103;42.776;23.112;2022-12-20T10:16:52;95444.75;;;-0.42;69.08
52105;BME280;38103;42.776;23.112;2022-12-20T10:24:37;95423.66;;;-0.18;67.24
52105;BME280;38103;42.776;23.112;2022-12-20T10:27:15;95412.56;;;-0.20;66.54
52105;BME280;38103;42.776;23.112;2022-12-20T10:29:41;95411.50;;;-0.07;67.37
52105;BME280;38103;42.776;23.112;2022-12-20T10:32:16;95404.44;;;-0.05;66.29
52105;BME280;38103;42.776;23.112;2022-12-20T10:37:36;95398.38;;;-0.47;66.65
52105;BME280;38103;42.776;23.112;2022-12-20T10:40:03;95399.06;;;-0.45;67.97
52105;BME280;38103;42.776;23.112;2022-12-20T10:42:39;95390.41;;;-0.24;67.88
52105;BME280;38103;42.776;23.112;2022-12-20T10:47:59;95373.22;;;-0.05;66.44
52105;BME280;38103;42.776;23.112;2022-12-20T10:50:25;95368.59;;;0.18;66.64
52105;BME280;38103;42.776;23.112;2022-12-20T10:53:23;95366.97;;;0.17;66.22
52105;BME280;38103;42.776;23.112;2022-12-20T10:55:50;95362.91;;;0.44;65.05
52105;BME280;38103;42.776;23.112;2022-12-20T11:01:04;95366.19;;;0.86;65.10
52105;BME280;38103;42.776;23.112;2022-12-20T11:03:30;95356.44;;;1.18;63.64
52105;BME280;38103;42.776;23.112;2022-12-20T11:06:01;95363.44;;;0.88;63.12
52105;BME280;38103;42.776;23.112;2022-12-20T11:08:29;95342.91;;;0.85;63.64
52105;BME280;38103;42.776;23.112;2022-12-20T11:11:23;95351.09;;;1.10;63.10
52105;BME280;38103;42.776;23.112;2022-12-20T11:13:50;95346.34;;;1.43;62.79
52105;BME280;38103;42.776;23.112;2022-12-20T11:21:45;95335.16;;;1.23;60.21
52105;BME280;38103;42.776;23.112;2022-12-20T11:28:19;95334.22;;;1.62;60.94
52105;BME280;38103;42.776;23.112;2022-12-20T11:33:30;95337.84;;;1.41;59.75
52105;BME280;38103;42.776;23.112;2022-12-20T11:35:51;95325.72;;;1.50;60.74
52105;BME280;38103;42.776;23.112;2022-12-20T11:38:49;95326.28;;;1.54;58.95
52105;BME280;38103;42.776;23.112;2022-12-20T11:41:49;95316.53;;;1.56;58.88
52105;BME280;38103;42.776;23.112;2022-12-20T11:44:28;95324.16;;;1.29;60.33
52105;BME280;38103;42.776;23.112;2022-12-20T11:54:57;95302.53;;;1.85;59.93
52105;BME280;38103;42.776;23.112;2022-12-20T11:57:31;95305.44;;;1.54;58.40
52105;BME280;38103;42.776;23.112;2022-12-20T12:00:00;95302.75;;;1.92;59.69
52105;BME280;38103;42.776;23.112;2022-12-20T12:05:15;95300.97;;;1.93;57.33
52105;BME280;38103;42.776;23.112;2022-12-20T12:07:46;95290.63;;;1.54;56.38
52105;BME280;38103;42.776;23.112;2022-12-20T12:10:18;95301.66;;;1.38;58.52
52105;BME280;38103;42.776;23.112;2022-12-20T12:12:52;95279.94;;;1.48;57.99
52105;BME280;38103;42.776;23.112;2022-12-20T12:18:02;95280.66;;;2.15;56.83
52105;BME280;38103;42.776;23.112;2022-12-20T12:20:47;95290.22;;;1.77;56.50
52105;BME280;38103;42.776;23.112;2022-12-20T12:25:54;95280.06;;;2.21;56.92
52105;BME280;38103;42.776;23.112;2022-12-20T12:28:20;95272.53;;;2.36;56.12
52105;BME280;38103;42.776;23.112;2022-12-20T12:30:53;95274.69;;;2.41;54.07
52105;BME280;38103;42.776;23.112;2022-12-20T12:33:27;95269.75;;;2.56;53.86
52105;BME280;38103;42.776;23.112;2022-12-20T12:39:10;95266.06;;;2.85;54.20
52105;BME280;38103;42.776;23.112;2022-12-20T12:42:12;95267.78;;;2.76;53.52
52105;BME280;38103;42.776;23.112;2022-12-20T12:45:04;95264.63;;;2.46;53.96
52105;BME280;38103;42.776;23.112;2022-12-20T12:47:44;95259.84;;;2.60;54.22
52105;BME280;38103;42.776;23.112;2022-12-20T12:50:29;95263.47;;;2.67;53.96
52105;BME280;38103;42.776;23.112;2022-12-20T12:53:02;95251.47;;;2.56;54.73
52105;BME280;38103;42.776;23.112;2022-12-20T12:55:41;95249.19;;;2.34;54.83
52105;BME280;38103;42.776;23.112;2022-12-20T13:00:53;95257.00;;;1.51;57.13
52105;BME280;38103;42.776;23.112;2022-12-20T13:04:08;95254.47;;;1.41;57.26
52105;BME280;38103;42.776;23.112;2022-12-20T13:11:36;95245.16;;;1.39;58.50
52105;BME280;38103;42.776;23.112;2022-12-20T13:16:47;95245.59;;;1.52;57.88
52105;BME280;38103;42.776;23.112;2022-12-20T13:21:55;95242.78;;;1.45;58.31
52105;BME280;38103;42.776;23.112;2022-12-20T13:37:52;95232.41;;;1.36;59.51
52105;BME280;38103;42.776;23.112;2022-12-20T13:40:22;95052.06;;;0.39;58.77
52105;BME280;38103;42.776;23.112;2022-12-20T13:42:52;95233.00;;;1.48;59.50
52105;BME280;38103;42.776;23.112;2022-12-20T13:45:19;95223.47;;;1.38;60.16
52105;BME280;38103;42.776;23.112;2022-12-20T13:47:52;95193.97;;;1.09;61.54
52105;BME280;38103;42.776;23.112;2022-12-20T13:50:31;95223.47;;;1.38;61.40
52105;BME280;38103;42.776;23.112;2022-12-20T13:53:00;95228.00;;;1.36;59.65
52105;BME280;38103;42.776;23.112;2022-12-20T13:55:38;95217.88;;;1.33;60.01
52105;BME280;38103;42.776;23.112;2022-12-20T13:58:25;95216.22;;;1.32;61.71
52105;BME280;38103;42.776;23.112;2022-12-20T14:00:53;95194.81;;;1.10;61.77
52105;BME280;38103;42.776;23.112;2022-12-20T14:03:28;95213.94;;;1.19;61.79
52105;BME280;38103;42.776;23.112;2022-12-20T14:05:57;95206.97;;;1.19;61.81
52105;BME280;38103;42.776;23.112;2022-12-20T14:08:28;95203.34;;;1.02;62.25
52105;BME280;38103;42.776;23.112;2022-12-20T14:10:54;95205.59;;;0.87;63.11
52105;BME280;38103;42.776;23.112;2022-12-20T14:13:25;95151.16;;;0.55;63.97
52105;BME280;38103;42.776;23.112;2022-12-20T14:15:51;95198.72;;;0.86;64.58
52105;BME280;38103;42.776;23.112;2022-12-20T14:18:26;95197.59;;;0.98;64.88
52105;BME280;38103;42.776;23.112;2022-12-20T14:20:57;95202.34;;;1.13;65.42
52105;BME280;38103;42.776;23.112;2022-12-20T14:23:35;95198.31;;;1.19;65.24
52105;BME280;38103;42.776;23.112;2022-12-20T14:26:02;95198.88;;;1.22;64.89
52105;BME280;38103;42.776;23.112;2022-12-20T14:29:00;95186.59;;;1.05;64.82
52105;BME280;38103;42.776;23.112;2022-12-20T14:36:45;95184.97;;;1.04;65.92
52105;BME280;38103;42.776;23.112;2022-12-20T14:39:30;95187.41;;;0.77;66.34
52105;BME280;38103;42.776;23.112;2022-12-20T14:44:34;95185.13;;;0.44;67.62
52105;BME280;38103;42.776;23.112;2022-12-20T14:47:03;95178.75;;;0.28;68.14
52105;BME280;38103;42.776;23.112;2022-12-20T14:49:33;95173.56;;;0.08;69.36
52105;BME280;38103;42.776;23.112;2022-12-20T14:52:13;95186.56;;;-0.02;69.18
52105;BME280;38103;42.776;23.112;2022-12-20T14:54:49;95186.84;;;0.05;69.78